createdAt,value
2023-05-11T00:01:44.520Z,101174.28
2023-05-11T00:06:37.499Z,101171.44
2023-05-11T00:09:04.111Z,101167.06
2023-05-11T00:11:31.029Z,101177.59
2023-05-11T00:13:57.515Z,101176.69
2023-05-11T00:16:24.099Z,101184.28
2023-05-11T00:18:50.673Z,101172.19
2023-05-11T00:21:17.193Z,101176.50
2023-05-11T00:23:43.694Z,101177.50
2023-05-11T00:26:10.833Z,101173.09
2023-05-11T00:28:37.369Z,101182.03
2023-05-11T00:31:03.881Z,101177.59
2023-05-11T00:33:30.499Z,101185.09
2023-05-11T00:35:57.115Z,101176.19
2023-05-11T00:38:23.672Z,101185.16
2023-05-11T00:40:50.999Z,101186.16
2023-05-11T00:43:17.470Z,101183.69
2023-05-11T00:45:47.960Z,101179.34
2023-05-11T00:48:15.439Z,101190.91
2023-05-11T00:50:42.175Z,101184.78
2023-05-11T00:53:09.058Z,101195.81
2023-05-11T00:55:35.517Z,101193.38
2023-05-11T00:58:05.553Z,101188.84
2023-05-11T01:00:32.178Z,101191.91
2023-05-11T01:03:00.477Z,101186.03
2023-05-11T01:05:41.699Z,101187.88
2023-05-11T01:08:32.507Z,101194.19
2023-05-11T01:11:03.791Z,101186.19
2023-05-11T01:13:38.037Z,101185.59
2023-05-11T01:16:12.270Z,101196.78
2023-05-11T01:18:40.740Z,101191.59
2023-05-11T01:21:08.579Z,101186.47
2023-05-11T01:24:03.711Z,101191.69
2023-05-11T01:27:04.502Z,101191.66
2023-05-11T01:29:49.952Z,101193.06
2023-05-11T01:32:27.727Z,101197.56
2023-05-11T01:35:10.264Z,101192.19
2023-05-11T01:37:38.984Z,101189.69
2023-05-11T01:40:13.754Z,101197.50
2023-05-11T01:42:44.476Z,101199.28
2023-05-11T01:45:11.797Z,101193.47
2023-05-11T01:47:40.719Z,101198.50
2023-05-11T01:50:08.519Z,101196.81
2023-05-11T01:52:36.570Z,101198.59
2023-05-11T01:55:05.012Z,101202.75
2023-05-11T01:57:32.439Z,101202.00
2023-05-11T02:00:00.069Z,101205.59
2023-05-11T02:02:27.500Z,101204.53
2023-05-11T02:04:54.655Z,101206.91
2023-05-11T02:07:21.632Z,101223.16
2023-05-11T02:09:48.737Z,101218.06
2023-05-11T02:12:16.692Z,101213.66
2023-05-11T02:14:43.487Z,101216.56
2023-05-11T02:17:10.776Z,101218.34
2023-05-11T02:19:38.530Z,101212.22
2023-05-11T02:22:05.727Z,101218.38
2023-05-11T02:24:33.335Z,101218.28
2023-05-11T02:26:59.827Z,101215.03
2023-05-11T02:29:26.488Z,101223.88
2023-05-11T02:31:57.228Z,101233.13
2023-05-11T02:34:26.824Z,101227.38
2023-05-11T02:36:56.153Z,101222.94
2023-05-11T02:39:23.392Z,101228.94
2023-05-11T02:41:55.957Z,101226.97
2023-05-11T02:44:24.589Z,101222.63
2023-05-11T02:46:52.762Z,101228.84
2023-05-11T02:49:21.300Z,101234.25
2023-05-11T02:51:48.837Z,101234.91
2023-05-11T02:54:16.095Z,101228.75
2023-05-11T02:56:42.636Z,101223.44
2023-05-11T02:59:09.236Z,101232.50
2023-05-11T03:01:35.797Z,101238.06
2023-05-11T03:04:05.744Z,101236.47
2023-05-11T03:06:33.304Z,101238.38
2023-05-11T03:09:01.338Z,101242.66
2023-05-11T03:11:28.019Z,101233.63
2023-05-11T03:13:54.624Z,101238.84
2023-05-11T03:16:21.681Z,101236.06
2023-05-11T03:18:49.297Z,101246.22
2023-05-11T03:21:17.911Z,101241.91
2023-05-11T03:23:46.013Z,101244.63
2023-05-11T03:26:13.341Z,101238.41
2023-05-11T03:28:41.276Z,101242.81
2023-05-11T03:31:07.887Z,101241.16
2023-05-11T03:33:34.385Z,101251.38
2023-05-11T03:36:01.137Z,101245.31
2023-05-11T03:38:28.259Z,101247.31
2023-05-11T03:40:54.937Z,101243.81
2023-05-11T03:43:22.174Z,101248.69
2023-05-11T03:45:51.489Z,101249.59
2023-05-11T03:48:18.574Z,101247.00
2023-05-11T03:50:45.371Z,101237.50
2023-05-11T03:53:12.513Z,101247.06
2023-05-11T03:55:39.194Z,101245.31
2023-05-11T03:58:09.755Z,101242.66
2023-05-11T04:00:42.669Z,101243.41
2023-05-11T04:03:09.828Z,101244.72
2023-05-11T04:05:36.498Z,101244.91
2023-05-11T04:08:04.498Z,101251.28
2023-05-11T04:10:30.995Z,101248.31
2023-05-11T04:12:57.812Z,101244.91
2023-05-11T04:15:24.282Z,101242.03
2023-05-11T04:17:50.836Z,101251.44
2023-05-11T04:20:17.710Z,101246.44
2023-05-11T04:22:44.372Z,101245.69
2023-05-11T04:25:11.513Z,101247.16
2023-05-11T04:27:38.036Z,101246.16
2023-05-11T04:30:05.421Z,101249.69
2023-05-11T04:32:31.966Z,101249.72
2023-05-11T04:34:58.408Z,101257.56
2023-05-11T04:37:24.877Z,101252.66
2023-05-11T04:39:51.343Z,101250.34
2023-05-11T04:42:17.954Z,101249.63
2023-05-11T04:44:44.391Z,101247.41
2023-05-11T04:47:11.023Z,101256.19
2023-05-11T04:49:37.534Z,101253.50
2023-05-11T04:52:04.146Z,101256.78
2023-05-11T04:54:31.134Z,101248.69
2023-05-11T04:56:57.617Z,101250.63
2023-05-11T04:59:24.134Z,101253.69
2023-05-11T05:01:50.687Z,101259.06
2023-05-11T05:04:17.189Z,101255.53
2023-05-11T05:06:43.716Z,101260.81
2023-05-11T05:09:11.187Z,101258.31
2023-05-11T05:11:37.735Z,101260.84
2023-05-11T05:14:04.258Z,101266.94
2023-05-11T05:16:32.435Z,101268.72
2023-05-11T05:19:00.549Z,101272.28
2023-05-11T05:21:27.088Z,101278.16
2023-05-11T05:23:53.597Z,101274.72
2023-05-11T05:26:20.049Z,101275.56
2023-05-11T05:28:46.518Z,101276.50
2023-05-11T05:31:13.038Z,101282.56
2023-05-11T05:33:39.514Z,101277.19
2023-05-11T05:36:06.229Z,101279.09
2023-05-11T05:38:32.800Z,101278.75
2023-05-11T05:40:59.479Z,101278.44
2023-05-11T05:43:25.954Z,101281.00
2023-05-11T05:45:52.435Z,101288.88
2023-05-11T05:48:18.916Z,101285.28
2023-05-11T05:50:45.442Z,101286.31
2023-05-11T05:53:11.966Z,101298.41
2023-05-11T05:55:38.502Z,101301.19
2023-05-11T05:58:04.982Z,101297.81
2023-05-11T06:00:31.606Z,101292.47
2023-05-11T06:02:58.127Z,101299.34
2023-05-11T06:05:24.658Z,101299.44
2023-05-11T06:08:01.882Z,101302.91
2023-05-11T06:10:36.056Z,101299.53
2023-05-11T06:13:02.524Z,101294.38
2023-05-11T06:15:28.968Z,101307.41
2023-05-11T06:17:55.600Z,101302.84
2023-05-11T06:20:23.412Z,101305.72
2023-05-11T06:22:49.977Z,101300.53
2023-05-11T06:25:16.849Z,101310.81
2023-05-11T06:27:43.325Z,101303.91
2023-05-11T06:30:10.107Z,101308.31
2023-05-11T06:32:36.732Z,101303.16
2023-05-11T06:35:03.347Z,101301.44
2023-05-11T06:37:30.332Z,101301.38
2023-05-11T06:39:56.921Z,101310.94
2023-05-11T06:42:23.450Z,101312.66
2023-05-11T06:44:49.946Z,101316.84
2023-05-11T06:47:16.689Z,101307.31
2023-05-11T06:49:43.194Z,101310.97
2023-05-11T06:52:10.085Z,101311.94
2023-05-11T06:54:36.804Z,101314.56
2023-05-11T06:57:03.736Z,101305.84
2023-05-11T06:59:30.597Z,101316.31
2023-05-11T07:01:57.080Z,101322.50
2023-05-11T07:04:24.351Z,101311.91
2023-05-11T07:06:50.960Z,101311.94
2023-05-11T07:09:17.439Z,101319.84
2023-05-11T07:11:43.997Z,101325.09
2023-05-11T07:14:10.575Z,101327.69
2023-05-11T07:16:40.226Z,101317.22
2023-05-11T07:19:08.306Z,101331.22
2023-05-11T07:21:35.716Z,101330.34
2023-05-11T07:24:03.238Z,101332.06
2023-05-11T07:26:29.932Z,101332.97
2023-05-11T07:28:56.487Z,101331.19
2023-05-11T07:31:22.993Z,101331.06
2023-05-11T07:33:49.527Z,101332.88
2023-05-11T07:36:16.000Z,101333.84
2023-05-11T07:38:42.508Z,101328.59
2023-05-11T07:41:10.793Z,101327.72
2023-05-11T07:43:38.981Z,101329.47
2023-05-11T07:46:05.719Z,101334.72
2023-05-11T07:48:32.219Z,101339.97
2023-05-11T07:50:58.767Z,101339.06
2023-05-11T07:53:25.317Z,101342.63
2023-05-11T07:55:51.775Z,101334.72
2023-05-11T07:58:18.381Z,101340.00
2023-05-11T08:00:44.836Z,101342.59
2023-05-11T08:03:11.364Z,101345.22
2023-05-11T08:05:38.059Z,101342.63
2023-05-11T08:08:05.318Z,101347.88
2023-05-11T08:10:32.017Z,101344.34
2023-05-11T08:12:59.270Z,101360.13
2023-05-11T08:15:26.374Z,101356.63
2023-05-11T08:17:53.834Z,101358.38
2023-05-11T08:20:20.423Z,101362.78
2023-05-11T08:22:47.011Z,101364.53
2023-05-11T08:25:13.852Z,101363.63
2023-05-11T08:27:40.577Z,101367.16
2023-05-11T08:30:10.124Z,101364.50
2023-05-11T08:32:54.489Z,101368.91
2023-05-11T08:35:24.845Z,101367.91
2023-05-11T08:37:51.333Z,101366.28
2023-05-11T08:40:19.520Z,101377.66
2023-05-11T08:42:46.931Z,101372.38
2023-05-11T08:45:13.510Z,101380.28
2023-05-11T08:47:40.101Z,101376.78
2023-05-11T08:50:06.986Z,101377.66
2023-05-11T08:52:34.503Z,101377.66
2023-05-11T08:55:01.121Z,101375.91
2023-05-11T08:57:32.135Z,101379.38
2023-05-11T09:00:00.447Z,101385.50
2023-05-11T09:02:27.424Z,101383.72
2023-05-11T09:04:54.765Z,101378.53
2023-05-11T09:07:22.317Z,101376.81
2023-05-11T09:09:48.972Z,101378.56
2023-05-11T09:12:16.726Z,101382.94
2023-05-11T09:14:43.358Z,101374.13
2023-05-11T09:17:09.949Z,101372.41
2023-05-11T09:19:36.478Z,101374.13
2023-05-11T09:22:05.396Z,101374.16
2023-05-11T09:24:32.435Z,101368.88
2023-05-11T09:29:53.027Z,101370.63
2023-05-11T09:32:19.489Z,101368.81
2023-05-11T09:34:46.277Z,101375.91
2023-05-11T09:37:19.396Z,101371.56
2023-05-11T09:40:28.249Z,101380.31
2023-05-11T09:42:32.431Z,101381.19
2023-05-11T09:44:58.869Z,101379.41
2023-05-11T09:47:25.388Z,101375.91
2023-05-11T09:49:52.007Z,101378.56
2023-05-11T09:52:21.027Z,101381.19
2023-05-11T09:54:50.662Z,101377.69
2023-05-11T09:57:30.688Z,101375.91
2023-05-11T09:59:58.946Z,101380.28
2023-05-11T10:02:30.612Z,101379.38
2023-05-11T10:04:58.623Z,101387.31
2023-05-11T10:07:28.713Z,101375.91
2023-05-11T10:09:59.337Z,101382.06
2023-05-11T10:12:27.347Z,101385.56
2023-05-11T10:15:07.658Z,101374.16
2023-05-11T10:17:35.106Z,101375.91
2023-05-11T10:20:02.144Z,101377.69
2023-05-11T10:22:29.359Z,101368.88
2023-05-11T10:24:59.740Z,101374.16
2023-05-11T10:27:27.083Z,101371.53
2023-05-11T10:29:53.943Z,101377.66
2023-05-11T10:32:22.699Z,101375.91
2023-05-11T10:34:50.722Z,101373.28
2023-05-11T10:37:17.652Z,101380.31
2023-05-11T10:39:48.444Z,101382.06
2023-05-11T10:42:42.781Z,101380.31
2023-05-11T10:45:24.846Z,101374.16
2023-05-11T10:48:10.100Z,101381.16
2023-05-11T10:51:02.561Z,101379.41
2023-05-11T10:53:35.148Z,101385.53
2023-05-11T10:56:20.375Z,101375.03
2023-05-11T10:59:14.756Z,101373.09
2023-05-11T11:01:42.556Z,101381.16
2023-05-11T11:04:13.580Z,101375.91
2023-05-11T11:06:44.186Z,101373.28
2023-05-11T11:09:15.564Z,101377.66
2023-05-11T11:11:46.912Z,101371.53
2023-05-11T11:14:15.448Z,101382.94
2023-05-11T11:17:17.016Z,101387.28
2023-05-11T11:19:43.766Z,101383.81
2023-05-11T11:22:35.389Z,101384.69
2023-05-11T11:25:06.144Z,101388.19
2023-05-11T11:27:41.938Z,101382.06
2023-05-11T11:30:18.660Z,101388.19
2023-05-11T11:32:46.478Z,101387.31
2023-05-11T11:35:47.393Z,101388.19
2023-05-11T11:38:16.457Z,101385.59
2023-05-11T11:40:52.713Z,101388.19
2023-05-11T11:43:28.445Z,101393.41
2023-05-11T11:46:02.701Z,101383.69
2023-05-11T11:48:36.555Z,101388.16
2023-05-11T11:51:06.722Z,101391.72
2023-05-11T11:53:36.444Z,101392.44
2023-05-11T11:56:15.562Z,101387.16
2023-05-11T11:58:42.479Z,101391.50
2023-05-11T12:01:13.589Z,101391.53
2023-05-11T12:03:44.073Z,101388.16
2023-05-11T12:06:12.189Z,101397.56
2023-05-11T12:08:39.854Z,101394.28
2023-05-11T12:11:07.049Z,101391.59
2023-05-11T12:13:34.740Z,101391.28
2023-05-11T12:16:10.462Z,101392.78
2023-05-11T12:18:37.063Z,101394.00
2023-05-11T12:21:03.719Z,101398.44
2023-05-11T12:23:30.408Z,101383.22
2023-05-11T12:26:04.238Z,101383.69
2023-05-11T12:28:30.728Z,101384.56
2023-05-11T12:30:59.136Z,101383.72
2023-05-11T12:33:27.168Z,101388.41
2023-05-11T12:35:54.948Z,101384.56
2023-05-11T12:38:21.615Z,101386.75
2023-05-11T12:40:53.116Z,101385.25
2023-05-11T12:43:20.907Z,101382.03
2023-05-11T12:45:47.789Z,101382.78
2023-05-11T12:48:15.136Z,101385.06
2023-05-11T12:50:42.749Z,101387.03
2023-05-11T12:53:14.465Z,101382.41
2023-05-11T12:55:41.577Z,101382.69
2023-05-11T12:58:15.359Z,101381.72
2023-05-11T13:00:55.690Z,101386.03
2023-05-11T13:03:23.029Z,101375.22
2023-05-11T13:05:49.993Z,101362.72
2023-05-11T13:08:19.067Z,101374.84
2023-05-11T13:10:47.748Z,101376.50
2023-05-11T13:13:27.615Z,101374.28
2023-05-11T13:15:54.919Z,101370.38
2023-05-11T13:18:23.238Z,101364.91
2023-05-11T13:21:05.126Z,101372.84
2023-05-11T13:23:31.814Z,101368.00
2023-05-11T13:25:58.323Z,101361.63
2023-05-11T13:28:25.194Z,101360.19
2023-05-11T13:30:58.059Z,101360.00
2023-05-11T13:33:24.566Z,101355.00
2023-05-11T13:35:51.098Z,101354.31
2023-05-11T13:38:17.595Z,101357.56
2023-05-11T13:40:44.035Z,101364.03
2023-05-11T13:43:10.730Z,101351.38
2023-05-11T13:45:40.070Z,101348.28
2023-05-11T13:48:07.107Z,101356.22
2023-05-11T13:50:33.597Z,101355.25
2023-05-11T13:53:00.160Z,101345.31
2023-05-11T13:55:28.183Z,101341.84
2023-05-11T13:57:54.765Z,101337.06
2023-05-11T14:00:21.453Z,101336.22
2023-05-11T14:02:50.496Z,101333.91
2023-05-11T14:05:17.598Z,101317.72
2023-05-11T14:07:48.189Z,101319.03
2023-05-11T14:10:16.276Z,101324.13
2023-05-11T14:12:42.828Z,101323.50
2023-05-11T14:15:10.048Z,101319.00
2023-05-11T14:17:36.777Z,101319.88
2023-05-11T14:20:04.230Z,101319.38
2023-05-11T14:22:30.913Z,101318.88
2023-05-11T14:24:57.363Z,101313.84
2023-05-11T14:27:23.937Z,101316.81
2023-05-11T14:29:52.176Z,101316.78
2023-05-11T14:32:19.523Z,101321.22
2023-05-11T14:34:46.610Z,101313.56
2023-05-11T14:37:13.350Z,101306.97
2023-05-11T14:39:41.170Z,101308.84
2023-05-11T14:42:08.946Z,101306.78
2023-05-11T14:44:35.482Z,101310.78
2023-05-11T14:47:02.018Z,101311.09
2023-05-11T14:49:28.853Z,101315.47
2023-05-11T14:51:55.557Z,101318.72
2023-05-11T14:54:22.029Z,101315.56
2023-05-11T14:56:53.741Z,101319.16
2023-05-11T14:59:21.314Z,101321.34
2023-05-11T15:01:49.608Z,101324.47
2023-05-11T15:04:16.843Z,101333.84
2023-05-11T15:06:43.778Z,101320.66
2023-05-11T15:09:10.291Z,101332.13
2023-05-11T15:11:39.617Z,101326.19
2023-05-11T15:14:07.123Z,101330.31
2023-05-11T15:16:33.742Z,101342.00
2023-05-11T15:19:00.575Z,101331.53
2023-05-11T15:21:27.531Z,101337.94
2023-05-11T15:23:54.354Z,101338.31
2023-05-11T15:26:22.167Z,101335.94
2023-05-11T15:28:48.978Z,101346.75
2023-05-11T15:31:15.540Z,101341.25
2023-05-11T15:33:42.539Z,101337.25
2023-05-11T15:36:13.541Z,101346.09
2023-05-11T15:38:40.542Z,101336.38
2023-05-11T15:41:07.836Z,101344.06
2023-05-11T15:43:34.780Z,101333.75
2023-05-11T15:46:03.608Z,101333.56
2023-05-11T15:48:30.383Z,101336.22
2023-05-11T15:50:58.815Z,101335.38
2023-05-11T15:53:25.470Z,101339.72
2023-05-11T15:55:55.403Z,101330.94
2023-05-11T15:58:22.241Z,101337.91
2023-05-11T16:00:49.149Z,101333.19
2023-05-11T16:03:15.978Z,101337.44
2023-05-11T16:05:42.539Z,101333.97
2023-05-11T16:08:08.970Z,101334.28
2023-05-11T16:10:35.447Z,101339.19
2023-05-11T16:13:01.895Z,101337.06
2023-05-11T16:15:29.453Z,101342.19
2023-05-11T16:17:56.041Z,101341.34
2023-05-11T16:20:22.644Z,101339.09
2023-05-11T16:22:49.099Z,101333.13
2023-05-11T16:25:16.150Z,101336.00
2023-05-11T16:27:42.629Z,101333.47
2023-05-11T16:30:22.217Z,101339.59
2023-05-11T16:32:51.124Z,101345.59
2023-05-11T16:35:17.731Z,101341.50
2023-05-11T16:37:44.197Z,101336.94
2023-05-11T16:40:10.956Z,101343.75
2023-05-11T16:42:37.542Z,101338.81
2023-05-11T16:45:04.907Z,101337.97
2023-05-11T16:47:31.528Z,101333.63
2023-05-11T16:49:58.182Z,101333.72
2023-05-11T16:52:24.796Z,101337.13
2023-05-11T16:54:51.322Z,101339.81
2023-05-11T16:57:17.804Z,101322.16
2023-05-11T16:59:44.400Z,101333.50
2023-05-11T17:02:11.143Z,101329.84
2023-05-11T17:04:37.684Z,101325.56
2023-05-11T17:07:04.327Z,101326.47
2023-05-11T17:09:31.046Z,101325.66
2023-05-11T17:11:57.555Z,101331.47
2023-05-11T17:14:24.087Z,101324.50
2023-05-11T17:16:50.955Z,101323.34
2023-05-11T17:19:18.095Z,101330.56
2023-05-11T17:21:44.677Z,101327.13
2023-05-11T17:24:11.269Z,101325.28
2023-05-11T17:26:47.947Z,101327.78
2023-05-11T17:29:16.565Z,101325.41
2023-05-11T17:31:43.432Z,101323.25
2023-05-11T17:34:10.780Z,101325.91
2023-05-11T17:36:37.589Z,101326.91
2023-05-11T17:39:05.091Z,101327.53
2023-05-11T17:41:31.987Z,101328.63
2023-05-11T17:43:58.450Z,101324.13
2023-05-11T17:46:25.303Z,101329.22
2023-05-11T17:48:53.005Z,101329.56
2023-05-11T17:51:20.343Z,101328.59
2023-05-11T17:53:47.804Z,101324.16
2023-05-11T17:56:16.072Z,101324.06
2023-05-11T17:58:46.539Z,101331.81
2023-05-11T18:01:16.970Z,101328.44
2023-05-11T18:03:43.824Z,101320.63
2023-05-11T18:06:10.636Z,101329.56
2023-05-11T18:08:37.719Z,101332.06
2023-05-11T18:11:05.535Z,101331.34
2023-05-11T18:13:32.080Z,101338.38
2023-05-11T18:16:00.345Z,101330.47
2023-05-11T18:18:27.031Z,101326.19
2023-05-11T18:20:54.124Z,101329.56
2023-05-11T18:23:21.182Z,101335.88
2023-05-11T18:25:48.464Z,101334.31
2023-05-11T18:28:14.954Z,101338.63
2023-05-11T18:30:41.422Z,101340.59
2023-05-11T18:33:08.466Z,101337.81
2023-05-11T18:35:35.184Z,101344.13
2023-05-11T18:38:04.153Z,101345.88
2023-05-11T18:40:30.613Z,101347.63
2023-05-11T18:42:57.588Z,101349.41
2023-05-11T18:45:24.103Z,101359.13
2023-05-11T18:47:51.065Z,101365.19
2023-05-11T18:50:17.778Z,101359.03
2023-05-11T18:52:44.753Z,101360.00
2023-05-11T18:55:11.300Z,101359.09
2023-05-11T18:57:39.993Z,101367.06
2023-05-11T19:00:07.080Z,101367.94
2023-05-11T19:02:34.038Z,101365.34
2023-05-11T19:05:00.559Z,101374.03
2023-05-11T19:07:27.024Z,101379.34
2023-05-11T19:09:53.789Z,101377.50
2023-05-11T19:12:20.300Z,101391.63
2023-05-11T19:14:47.521Z,101382.81
2023-05-11T19:17:14.192Z,101389.00
2023-05-11T19:19:40.659Z,101391.66
2023-05-11T19:22:09.074Z,101389.91
2023-05-11T19:24:35.923Z,101392.53
2023-05-11T19:27:07.704Z,101399.59
2023-05-11T19:29:35.443Z,101389.94
2023-05-11T19:32:02.320Z,101405.72
2023-05-11T19:34:28.993Z,101411.00
2023-05-11T19:36:55.475Z,101403.97
2023-05-11T19:39:21.990Z,101417.13
2023-05-11T19:41:48.511Z,101421.53
2023-05-11T19:44:15.155Z,101428.53
2023-05-11T19:46:46.455Z,101424.16
2023-05-11T19:49:15.011Z,101417.97
2023-05-11T19:51:42.159Z,101431.16
2023-05-11T19:54:08.648Z,101426.75
2023-05-11T19:56:35.150Z,101428.50
2023-05-11T19:59:02.704Z,101429.41
2023-05-11T20:01:29.217Z,101421.50
2023-05-11T20:03:56.292Z,101424.13
2023-05-11T20:06:22.987Z,101432.03
2023-05-11T20:08:51.549Z,101432.00
2023-05-11T20:11:18.344Z,101420.66
2023-05-11T20:13:46.835Z,101434.63
2023-05-11T20:16:13.779Z,101444.28
2023-05-11T20:18:40.432Z,101432.88
2023-05-11T20:21:07.088Z,101433.75
2023-05-11T20:23:35.185Z,101445.16
2023-05-11T20:26:07.687Z,101439.84
2023-05-11T20:28:34.150Z,101440.75
2023-05-11T20:31:03.062Z,101443.38
2023-05-11T20:36:00.954Z,101446.91
2023-05-11T20:38:27.489Z,101448.59
2023-05-11T20:41:00.441Z,101454.78
2023-05-11T20:43:27.232Z,101452.94
2023-05-11T20:45:54.370Z,101456.44
2023-05-11T20:48:32.395Z,101453.00
2023-05-11T20:51:05.492Z,101455.63
2023-05-11T20:53:32.072Z,101453.84
2023-05-11T20:55:58.808Z,101460.06
2023-05-11T20:58:26.264Z,101460.91
2023-05-11T21:00:53.300Z,101467.06
2023-05-11T21:03:20.088Z,101469.69
2023-05-11T21:05:46.742Z,101467.94
2023-05-11T21:08:15.080Z,101467.06
2023-05-11T21:10:42.045Z,101470.59
2023-05-11T21:13:08.970Z,101472.28
2023-05-11T21:15:35.978Z,101472.31
2023-05-11T21:18:02.636Z,101473.22
2023-05-11T21:20:29.223Z,101474.03
2023-05-11T21:22:55.847Z,101468.88
2023-05-11T21:25:22.320Z,101474.13
2023-05-11T21:27:48.822Z,101475.91
2023-05-11T21:30:15.317Z,101481.06
2023-05-11T21:32:41.903Z,101476.75
2023-05-11T21:35:08.972Z,101484.59
2023-05-11T21:37:36.441Z,101477.63
2023-05-11T21:40:03.224Z,101474.13
2023-05-11T21:42:34.602Z,101472.38
2023-05-11T21:45:02.052Z,101479.38
2023-05-11T21:47:28.911Z,101481.16
2023-05-11T21:49:55.451Z,101484.66
2023-05-11T21:52:21.898Z,101480.25
2023-05-11T21:54:48.416Z,101478.47
2023-05-11T21:57:15.656Z,101490.81
2023-05-11T21:59:42.154Z,101489.03
2023-05-11T22:02:08.860Z,101481.16
2023-05-11T22:04:35.614Z,101487.25
2023-05-11T22:07:02.069Z,101488.16
2023-05-11T22:09:28.573Z,101496.03
2023-05-11T22:11:55.037Z,101491.69
2023-05-11T22:14:24.135Z,101497.81
2023-05-11T22:16:50.645Z,101498.69
2023-05-11T22:19:17.184Z,101498.69
2023-05-11T22:21:43.661Z,101505.69
2023-05-11T22:24:10.621Z,101511.78
2023-05-11T22:26:37.060Z,101502.16
2023-05-11T22:29:04.075Z,101513.56
2023-05-11T22:31:30.558Z,101506.59
2023-05-11T22:33:58.346Z,101509.16
2023-05-11T22:36:24.863Z,101507.44
2023-05-11T22:38:51.384Z,101518.81
2023-05-11T22:41:17.856Z,101517.09
2023-05-11T22:43:44.381Z,101516.22
2023-05-11T22:46:10.985Z,101517.09
2023-05-11T22:48:37.534Z,101519.66
2023-05-11T22:51:06.236Z,101519.75
2023-05-11T22:53:32.820Z,101522.38
2023-05-11T22:56:09.269Z,101524.09
2023-05-11T22:58:35.797Z,101525.00
2023-05-11T23:01:02.311Z,101523.25
2023-05-11T23:03:29.027Z,101532.81
2023-05-11T23:05:55.622Z,101525.88
2023-05-11T23:08:22.978Z,101531.94
2023-05-11T23:10:50.470Z,101530.22
2023-05-11T23:13:17.631Z,101524.06
2023-05-11T23:15:44.120Z,101534.53
2023-05-11T23:18:10.719Z,101533.69
2023-05-11T23:20:37.286Z,101529.28
2023-05-11T23:23:03.862Z,101526.69
2023-05-11T23:25:30.541Z,101523.13
2023-05-11T23:27:56.993Z,101519.66
2023-05-11T23:30:23.661Z,101522.34
2023-05-11T23:32:50.202Z,101525.81
2023-05-11T23:35:16.653Z,101531.06
2023-05-11T23:37:43.130Z,101531.00
2023-05-11T23:40:10.089Z,101539.84
2023-05-11T23:42:36.874Z,101535.41
2023-05-11T23:45:04.334Z,101540.72
2023-05-11T23:47:34.033Z,101541.59
2023-05-11T23:50:00.826Z,101537.09
2023-05-11T23:52:27.289Z,101538.06
2023-05-11T23:54:53.836Z,101540.59
2023-05-11T23:57:20.334Z,101534.59
2023-05-11T23:59:46.917Z,101532.78
